Time;durP1;ratioP1;P1;durP2;ratioP2;P2;SDS_P1;SDS_P2;PMS_P1;PMS_P2;Temp;Humidity;BMP_temperature;BMP_pressure;BME280_temperature;BME280_humidity;BME280_pressure;Samples;Min_cycle;Max_cycle;Signal;HPM_P1;HPM_P2
2022/10/02 00:02:11;;;;;;;;;;;17.70;70.20;;;;;;5165038;23;20071;-44
2022/10/02 00:04:38;;;;;;;;;;;17.70;70.40;;;;;;5163538;22;20264;-45
2022/10/02 00:07:04;;;;;;;;;;;17.80;70.10;;;;;;5163469;23;19942;-42
2022/10/02 00:09:33;;;;;;;;;;;17.80;69.70;;;;;;5157681;23;19950;-46
2022/10/02 00:11:57;;;;;;;;;;;17.80;69.40;;;;;;5134311;23;20007;-42
2022/10/02 00:14:20;;;;;;;;;;;17.80;69.20;;;;;;5157506;23;19907;-46
2022/10/02 00:16:44;;;;;;;;;;;17.80;69.10;;;;;;5167748;23;19904;-47
2022/10/02 00:19:09;;;;;;;;;;;17.70;69.10;;;;;;5168720;23;19994;-45
2022/10/02 00:21:31;;;;;;;;;;;17.80;68.80;;;;;;5168256;23;19903;-43
2022/10/02 00:23:57;;;;;;;;;;;17.70;68.10;;;;;;5168972;23;19908;-47
2022/10/02 00:26:22;;;;;;;;;;;17.70;67.90;;;;;;5168199;23;19958;-44
2022/10/02 00:28:44;;;;;;;;;;;17.70;67.80;;;;;;5160678;23;19915;-43
2022/10/02 00:31:21;;;;;;;;;;;17.70;67.60;;;;;;5166062;23;19911;-46
2022/10/02 00:34:00;;;;;;;;;;;17.70;68.00;;;;;;5165734;23;20332;-42
2022/10/02 00:36:38;;;;;;;;;;;17.70;68.30;;;;;;5155045;23;19938;-42
2022/10/02 00:39:05;;;;;;;;;;;17.80;68.50;;;;;;5156735;23;19907;-43
2022/10/02 00:41:56;;;;;;;;;;;17.80;68.60;;;;;;5166431;23;19918;-44
2022/10/02 00:44:24;;;;;;;;;;;17.90;68.70;;;;;;5168017;23;19907;-42
2022/10/02 00:46:55;;;;;;;;;;;17.90;68.90;;;;;;5168696;23;19957;-44
2022/10/02 00:49:17;;;;;;;;;;;17.90;69.00;;;;;;5161297;23;20355;-50
2022/10/02 00:51:45;;;;;;;;;;;17.90;68.60;;;;;;5169025;23;19914;-47
2022/10/02 00:54:13;;;;;;;;;;;17.90;68.30;;;;;;5169559;23;20019;-48
2022/10/02 00:57:03;;;;;;;;;;;17.90;67.80;;;;;;5167407;23;19903;-44
2022/10/02 00:59:32;;;;;;;;;;;17.90;67.70;;;;;;5056970;23;20322;-46
2022/10/02 01:02:12;;;;;;;;;;;17.90;68.20;;;;;;5169912;23;19907;-45
2022/10/02 01:04:35;;;;;;;;;;;17.90;68.10;;;;;;5167901;22;19908;-46
2022/10/02 01:06:57;;;;;;;;;;;17.90;68.30;;;;;;5169292;23;20239;-47
2022/10/02 01:09:19;;;;;;;;;;;17.90;68.40;;;;;;5169770;23;19969;-46
2022/10/02 01:11:42;;;;;;;;;;;17.90;68.50;;;;;;5167546;23;20030;-48
2022/10/02 01:14:04;;;;;;;;;;;17.90;69.20;;;;;;5158331;23;19903;-48
2022/10/02 01:16:26;;;;;;;;;;;17.90;68.60;;;;;;5166444;23;19912;-51
2022/10/02 01:18:48;;;;;;;;;;;17.90;68.60;;;;;;5159091;23;19973;-49
2022/10/02 01:21:17;;;;;;;;;;;17.90;68.50;;;;;;5167030;23;19935;-46
2022/10/02 01:23:48;;;;;;;;;;;17.90;68.50;;;;;;5167208;23;19914;-47
2022/10/02 01:26:10;;;;;;;;;;;17.90;68.50;;;;;;5167493;23;19914;-51
2022/10/02 01:28:32;;;;;;;;;;;18.00;68.50;;;;;;5136718;23;20324;-49
2022/10/02 01:30:56;;;;;;;;;;;18.00;68.50;;;;;;5166882;23;20357;-49
2022/10/02 01:33:18;;;;;;;;;;;18.00;68.30;;;;;;5165201;23;19938;-48
2022/10/02 01:35:41;;;;;;;;;;;18.00;68.20;;;;;;5156286;23;19915;-48
2022/10/02 01:38:06;;;;;;;;;;;18.00;68.10;;;;;;5167785;23;19915;-48
2022/10/02 01:40:29;;;;;;;;;;;18.00;68.00;;;;;;5168137;23;19908;-49
2022/10/02 01:42:52;;;;;;;;;;;18.10;68.00;;;;;;5159311;23;20270;-50
2022/10/02 01:45:14;;;;;;;;;;;18.10;67.90;;;;;;5170098;23;19915;-49
2022/10/02 01:47:40;;;;;;;;;;;18.10;67.90;;;;;;5168334;23;20256;-46
2022/10/02 01:50:02;;;;;;;;;;;18.10;67.90;;;;;;5159265;23;20324;-49
2022/10/02 01:52:27;;;;;;;;;;;18.10;67.80;;;;;;5169257;23;19907;-51
2022/10/02 01:54:49;;;;;;;;;;;18.10;67.70;;;;;;5169271;23;19919;-50
2022/10/02 01:57:19;;;;;;;;;;;18.10;67.60;;;;;;5169067;23;19938;-45
2022/10/02 01:59:50;;;;;;;;;;;18.10;67.50;;;;;;5168790;23;20316;-47
2022/10/02 02:02:25;;;;;;;;;;;18.10;67.50;;;;;;5169574;23;19907;-48
2022/10/02 02:04:57;;;;;;;;;;;18.10;67.40;;;;;;5170024;22;19907;-48
2022/10/02 02:07:19;;;;;;;;;;;18.10;67.30;;;;;;5167949;23;19903;-49
2022/10/02 02:09:44;;;;;;;;;;;18.10;67.30;;;;;;5160152;23;19912;-46
2022/10/02 02:12:19;;;;;;;;;;;18.10;67.30;;;;;;5169053;23;19961;-50
2022/10/02 02:14:44;;;;;;;;;;;18.20;67.30;;;;;;5168931;23;19939;-49
2022/10/02 02:17:12;;;;;;;;;;;18.20;67.20;;;;;;5169831;23;19930;-46
2022/10/02 02:19:37;;;;;;;;;;;18.20;67.20;;;;;;5169324;23;19914;-46
2022/10/02 02:22:08;;;;;;;;;;;18.20;67.80;;;;;;5168944;23;19904;-47
2022/10/02 02:24:42;;;;;;;;;;;18.20;67.20;;;;;;5169730;23;19911;-48
2022/10/02 02:27:04;;;;;;;;;;;18.10;67.10;;;;;;5169954;23;20243;-48
2022/10/02 02:29:29;;;;;;;;;;;18.20;67.10;;;;;;5173532;23;20347;-48
2022/10/02 02:31:52;;;;;;;;;;;18.10;67.10;;;;;;5175034;23;20430;-48
2022/10/02 02:34:15;;;;;;;;;;;18.20;67.10;;;;;;5174000;23;20007;-48
2022/10/02 02:36:43;;;;;;;;;;;18.20;67.00;;;;;;5174203;23;19899;-47
2022/10/02 02:39:08;;;;;;;;;;;18.20;67.00;;;;;;5170961;23;19982;-47
2022/10/02 02:41:34;;;;;;;;;;;18.20;66.90;;;;;;5169082;23;19914;-45
2022/10/02 02:44:02;;;;;;;;;;;18.20;66.80;;;;;;5170310;23;20403;-47
2022/10/02 02:46:34;;;;;;;;;;;18.20;66.80;;;;;;5168130;23;20013;-51
2022/10/02 02:49:03;;;;;;;;;;;18.20;67.40;;;;;;5169852;23;19978;-45
2022/10/02 02:51:33;;;;;;;;;;;18.30;66.80;;;;;;5167956;23;20388;-48
2022/10/02 02:54:02;;;;;;;;;;;18.20;66.80;;;;;;5167626;23;20363;-47
2022/10/02 02:56:26;;;;;;;;;;;18.20;66.80;;;;;;5168018;23;20057;-45
2022/10/02 02:58:54;;;;;;;;;;;18.20;66.70;;;;;;5168978;23;20386;-50
2022/10/02 03:01:17;;;;;;;;;;;18.30;66.70;;;;;;5160032;23;19908;-49
2022/10/02 03:03:38;;;;;;;;;;;18.30;66.70;;;;;;5160173;22;19923;-48
2022/10/02 03:06:01;;;;;;;;;;;18.30;66.60;;;;;;5168347;23;19939;-49
2022/10/02 03:08:25;;;;;;;;;;;18.30;66.50;;;;;;5160585;23;19937;-47
2022/10/02 03:11:05;;;;;;;;;;;18.30;66.40;;;;;;5168699;23;19953;-49
2022/10/02 03:13:27;;;;;;;;;;;18.40;66.40;;;;;;5168468;23;20537;-47
2022/10/02 03:16:07;;;;;;;;;;;18.30;66.40;;;;;;5168098;23;19953;-49
2022/10/02 03:18:34;;;;;;;;;;;18.40;66.40;;;;;;5169397;23;19912;-49
2022/10/02 03:21:09;;;;;;;;;;;18.40;66.30;;;;;;5168341;23;19904;-49
2022/10/02 03:23:49;;;;;;;;;;;18.40;66.20;;;;;;5169085;23;20335;-46
2022/10/02 03:26:23;;;;;;;;;;;18.40;66.70;;;;;;5169176;23;20312;-49
2022/10/02 03:28:49;;;;;;;;;;;18.40;66.10;;;;;;5168921;23;19911;-48
2022/10/02 03:31:11;;;;;;;;;;;18.40;66.00;;;;;;5169940;23;19908;-49
2022/10/02 03:33:35;;;;;;;;;;;18.50;66.00;;;;;;5168469;23;19939;-49
2022/10/02 03:35:57;;;;;;;;;;;18.50;66.00;;;;;;5168450;23;20001;-47
2022/10/02 03:38:21;;;;;;;;;;;18.50;66.00;;;;;;5167203;23;19907;-53
2022/10/02 03:40:43;;;;;;;;;;;18.50;65.80;;;;;;5168023;23;19907;-50
2022/10/02 03:43:05;;;;;;;;;;;18.50;65.80;;;;;;5168507;23;19908;-48
2022/10/02 03:45:27;;;;;;;;;;;18.50;66.10;;;;;;5166767;23;19945;-47
2022/10/02 03:47:50;;;;;;;;;;;18.60;66.30;;;;;;5167971;23;20367;-47
2022/10/02 03:50:12;;;;;;;;;;;18.70;66.20;;;;;;5168429;23;19904;-48
2022/10/02 03:52:35;;;;;;;;;;;18.70;66.30;;;;;;5168086;23;19934;-49
2022/10/02 03:55:01;;;;;;;;;;;18.80;66.90;;;;;;5159922;23;20346;-48
2022/10/02 03:57:23;;;;;;;;;;;18.90;67.80;;;;;;5166570;23;19934;-47
2022/10/02 04:00:12;;;;;;;;;;;19.00;68.50;;;;;;5167941;23;19903;-48
2022/10/02 04:02:42;;;;;;;;;;;19.10;69.20;;;;;;5161350;23;20256;-47
2022/10/02 04:05:04;;;;;;;;;;;19.30;69.00;;;;;;5168951;23;19930;-47
2022/10/02 04:07:37;;;;;;;;;;;19.40;70.00;;;;;;5167978;23;19908;-48
2022/10/02 04:10:21;;;;;;;;;;;19.50;69.90;;;;;;5136465;23;20364;-47
2022/10/02 04:12:46;;;;;;;;;;;19.70;69.70;;;;;;5168335;23;20135;-51
2022/10/02 04:15:22;;;;;;;;;;;19.70;69.30;;;;;;5168948;23;19908;-49
2022/10/02 04:17:48;;;;;;;;;;;19.80;68.90;;;;;;5166303;23;19907;-48
2022/10/02 04:20:14;;;;;;;;;;;19.80;68.90;;;;;;5168517;23;19934;-51
2022/10/02 04:22:41;;;;;;;;;;;19.90;68.30;;;;;;5169994;23;19903;-49
2022/10/02 04:25:12;;;;;;;;;;;20.00;67.80;;;;;;5170226;23;19990;-49
2022/10/02 04:27:40;;;;;;;;;;;20.00;67.90;;;;;;5170098;23;20337;-51
2022/10/02 04:30:07;;;;;;;;;;;20.20;67.90;;;;;;5170261;23;19935;-47
2022/10/02 04:32:30;;;;;;;;;;;20.20;67.80;;;;;;5170339;23;20327;-50
2022/10/02 04:34:53;;;;;;;;;;;20.30;67.70;;;;;;5169259;23;19938;-57
2022/10/02 04:37:23;;;;;;;;;;;20.40;67.80;;;;;;5170007;23;19903;-51
2022/10/02 04:40:05;;;;;;;;;;;20.50;68.20;;;;;;5170580;23;19926;-50
2022/10/02 04:42:40;;;;;;;;;;;20.60;68.10;;;;;;5168838;23;19957;-50
2022/10/02 04:45:15;;;;;;;;;;;20.70;67.80;;;;;;5160066;23;19911;-52
2022/10/02 04:47:43;;;;;;;;;;;20.80;68.80;;;;;;5169943;23;19903;-51
2022/10/02 04:50:31;;;;;;;;;;;21.00;67.30;;;;;;5170795;23;19990;-48
2022/10/02 04:52:58;;;;;;;;;;;21.00;66.10;;;;;;5167300;23;20445;-54
2022/10/02 04:55:20;;;;;;;;;;;21.00;65.40;;;;;;5167240;23;19926;-50
2022/10/02 04:57:52;;;;;;;;;;;21.00;64.60;;;;;;5167060;23;20008;-51
2022/10/02 05:00:14;;;;;;;;;;;21.00;64.20;;;;;;5168262;23;19910;-51
2022/10/02 05:02:54;;;;;;;;;;;21.00;63.30;;;;;;5166697;23;19908;-45
2022/10/02 05:05:16;;;;;;;;;;;21.10;63.40;;;;;;5167474;23;19908;-50
2022/10/02 05:07:44;;;;;;;;;;;21.10;63.40;;;;;;5167004;23;19907;-47
2022/10/02 05:10:09;;;;;;;;;;;21.20;63.30;;;;;;5167115;23;19922;-50
2022/10/02 05:12:50;;;;;;;;;;;21.30;63.30;;;;;;5167957;23;19907;-53
2022/10/02 05:15:32;;;;;;;;;;;21.40;63.20;;;;;;5166840;23;20066;-50
2022/10/02 05:18:06;;;;;;;;;;;21.50;63.20;;;;;;5167454;23;20030;-51
2022/10/02 05:20:40;;;;;;;;;;;21.50;63.20;;;;;;5156968;23;19989;-51
2022/10/02 05:23:05;;;;;;;;;;;21.60;63.00;;;;;;5167371;23;20357;-50
2022/10/02 05:25:46;;;;;;;;;;;21.70;62.80;;;;;;5167119;23;19907;-51
2022/10/02 05:28:20;;;;;;;;;;;21.80;62.80;;;;;;5165832;23;19965;-51
2022/10/02 05:30:52;;;;;;;;;;;21.80;62.80;;;;;;5157467;23;19931;-50
2022/10/02 05:33:14;;;;;;;;;;;21.90;62.50;;;;;;5156890;23;19954;-51
2022/10/02 05:35:54;;;;;;;;;;;22.00;62.50;;;;;;5167537;23;20010;-48
2022/10/02 05:38:31;;;;;;;;;;;22.00;62.20;;;;;;5167816;23;19910;-52
2022/10/02 05:40:53;;;;;;;;;;;22.10;62.10;;;;;;5167566;23;19913;-52
2022/10/02 05:43:15;;;;;;;;;;;22.10;61.90;;;;;;5167885;23;19907;-50
2022/10/02 05:45:39;;;;;;;;;;;22.20;62.00;;;;;;5168084;23;20392;-54
2022/10/02 05:48:04;;;;;;;;;;;22.20;61.70;;;;;;5167590;23;20422;-54
2022/10/02 05:50:33;;;;;;;;;;;22.30;61.80;;;;;;5166488;23;19934;-47
2022/10/02 05:53:13;;;;;;;;;;;22.30;61.70;;;;;;5167868;23;20320;-49
2022/10/02 05:55:52;;;;;;;;;;;22.40;61.50;;;;;;5169183;23;19918;-49
2022/10/02 05:58:16;;;;;;;;;;;22.30;61.50;;;;;;5169943;23;19945;-54
2022/10/02 06:00:41;;;;;;;;;;;22.30;61.40;;;;;;5169797;23;19934;-52
2022/10/02 06:03:08;;;;;;;;;;;22.30;61.20;;;;;;5169509;22;19907;-51
2022/10/02 06:05:37;;;;;;;;;;;22.30;60.90;;;;;;5161680;23;19939;-50
2022/10/02 06:08:02;;;;;;;;;;;22.30;60.80;;;;;;5169017;23;20483;-51
2022/10/02 06:10:44;;;;;;;;;;;22.30;60.80;;;;;;5167697;23;20228;-50
2022/10/02 06:13:22;;;;;;;;;;;22.30;60.70;;;;;;5168448;23;19907;-54
2022/10/02 06:15:44;;;;;;;;;;;22.40;60.40;;;;;;5159290;23;19939;-50
2022/10/02 06:18:08;;;;;;;;;;;22.40;60.20;;;;;;5169896;23;19915;-52
2022/10/02 06:20:33;;;;;;;;;;;22.40;60.10;;;;;;5169851;23;19915;-54
2022/10/02 06:23:00;;;;;;;;;;;22.40;60.00;;;;;;5167066;23;19961;-48
2022/10/02 06:25:26;;;;;;;;;;;22.40;60.10;;;;;;5133974;23;19910;-51
2022/10/02 06:27:51;;;;;;;;;;;22.40;60.20;;;;;;5166623;23;19920;-49
2022/10/02 06:30:14;;;;;;;;;;;22.40;60.30;;;;;;5156305;23;19969;-49
2022/10/02 06:32:38;;;;;;;;;;;22.40;60.20;;;;;;5156903;23;19910;-49
2022/10/02 06:35:04;;;;;;;;;;;22.50;61.00;;;;;;5158483;23;19907;-47
2022/10/02 06:37:52;;;;;;;;;;;22.50;60.40;;;;;;5156338;23;19914;-49
2022/10/02 06:40:30;;;;;;;;;;;22.50;60.50;;;;;;5131256;23;19907;-51
2022/10/02 06:42:54;;;;;;;;;;;22.50;60.40;;;;;;5165327;23;19907;-48
2022/10/02 06:45:20;;;;;;;;;;;22.50;60.20;;;;;;5167694;23;19907;-53
2022/10/02 06:47:56;;;;;;;;;;;22.50;60.40;;;;;;5161556;23;20021;-57
2022/10/02 06:50:26;;;;;;;;;;;22.50;58.40;;;;;;5171210;23;19914;-49
2022/10/02 06:53:11;;;;;;;;;;;22.40;59.10;;;;;;5167644;23;19946;-58
2022/10/02 06:55:34;;;;;;;;;;;22.30;59.20;;;;;;5175189;23;19953;-55
2022/10/02 06:58:02;;;;;;;;;;;22.30;59.60;;;;;;5175332;23;19914;-51
2022/10/02 07:00:25;;;;;;;;;;;22.40;60.20;;;;;;5165787;23;19914;-49
2022/10/02 07:03:05;;;;;;;;;;;22.40;60.60;;;;;;5170079;23;19910;-47
2022/10/02 07:05:53;;;;;;;;;;;22.40;61.40;;;;;;5139490;23;20086;-49
2022/10/02 07:08:18;;;;;;;;;;;22.50;61.60;;;;;;5160147;23;20263;-49
2022/10/02 07:10:49;;;;;;;;;;;22.50;62.30;;;;;;5169326;23;19907;-56
2022/10/02 07:13:17;;;;;;;;;;;22.50;63.00;;;;;;5168478;23;19930;-53
2022/10/02 07:15:57;;;;;;;;;;;22.50;64.60;;;;;;5168073;23;19903;-50
2022/10/02 07:18:20;;;;;;;;;;;22.50;65.00;;;;;;5166958;23;19904;-53
2022/10/02 07:21:04;;;;;;;;;;;22.50;65.90;;;;;;5137581;23;19989;-49
2022/10/02 07:23:28;;;;;;;;;;;22.50;66.00;;;;;;5169382;23;20346;-48
2022/10/02 07:25:57;;;;;;;;;;;22.40;65.00;;;;;;5168620;23;20295;-56
2022/10/02 07:28:19;;;;;;;;;;;22.40;65.00;;;;;;5137582;23;20022;-50
2022/10/02 07:31:04;;;;;;;;;;;22.30;64.90;;;;;;5168927;23;20326;-47
2022/10/02 07:33:29;;;;;;;;;;;22.30;65.20;;;;;;5112566;23;19914;-54
2022/10/02 07:36:07;;;;;;;;;;;22.20;65.30;;;;;;5138531;23;19962;-47
2022/10/02 07:38:42;;;;;;;;;;;22.20;65.50;;;;;;5168958;23;19953;-49
2022/10/02 07:41:07;;;;;;;;;;;22.20;65.60;;;;;;5139178;23;20300;-48
2022/10/02 07:43:29;;;;;;;;;;;22.10;65.60;;;;;;5160972;23;19911;-49
2022/10/02 07:46:00;;;;;;;;;;;22.10;65.60;;;;;;5169081;23;19939;-48
2022/10/02 07:48:31;;;;;;;;;;;22.10;65.90;;;;;;5167887;23;19911;-52
2022/10/02 07:51:45;;;;;;;;;;;22.10;66.00;;;;;;5167925;23;19981;-51
2022/10/02 07:53:53;;;;;;;;;;;22.10;66.20;;;;;;5158295;23;20228;-48
2022/10/02 07:56:20;;;;;;;;;;;22.00;66.50;;;;;;5168841;23;19998;-52
2022/10/02 07:59:08;;;;;;;;;;;22.00;66.50;;;;;;5161030;23;19908;-49
2022/10/02 08:01:35;;;;;;;;;;;22.00;66.70;;;;;;5162484;23;20310;-50
2022/10/02 08:03:59;;;;;;;;;;;22.00;67.50;;;;;;5170996;22;19914;-51
2022/10/02 08:06:21;;;;;;;;;;;21.90;67.70;;;;;;5170026;23;20324;-53
2022/10/02 08:09:22;;;;;;;;;;;21.90;67.40;;;;;;5167934;23;19930;-56
2022/10/02 08:11:46;;;;;;;;;;;21.90;67.10;;;;;;5044150;23;19953;-52
2022/10/02 08:14:21;;;;;;;;;;;21.80;67.00;;;;;;5045537;23;19916;-51
2022/10/02 08:16:51;;;;;;;;;;;21.80;66.80;;;;;;5117680;23;20244;-48
2022/10/02 08:19:17;;;;;;;;;;;21.70;66.60;;;;;;5169307;23;19922;-49
2022/10/02 08:21:42;;;;;;;;;;;21.70;66.80;;;;;;5159589;23;19918;-51
2022/10/02 08:24:10;;;;;;;;;;;21.70;67.00;;;;;;5170655;23;19987;-49
2022/10/02 08:26:33;;;;;;;;;;;21.70;67.30;;;;;;5169928;23;20359;-51
2022/10/02 08:29:04;;;;;;;;;;;21.70;68.00;;;;;;5161384;23;20637;-53
2022/10/02 08:31:26;;;;;;;;;;;21.70;68.70;;;;;;5159252;23;19935;-49
2022/10/02 08:33:48;;;;;;;;;;;21.80;68.80;;;;;;5169364;23;19911;-46
2022/10/02 08:36:28;;;;;;;;;;;21.80;68.50;;;;;;5159188;23;19991;-53
2022/10/02 08:39:10;;;;;;;;;;;21.80;68.20;;;;;;5168153;23;19908;-50
2022/10/02 08:41:51;;;;;;;;;;;21.80;67.90;;;;;;5168691;23;19990;-47
2022/10/02 08:44:27;;;;;;;;;;;21.80;67.70;;;;;;5167314;23;20150;-52
2022/10/02 08:47:07;;;;;;;;;;;21.80;67.50;;;;;;5167364;23;19907;-52
2022/10/02 08:49:47;;;;;;;;;;;21.80;67.40;;;;;;5160895;23;19916;-50
2022/10/02 08:52:21;;;;;;;;;;;21.80;67.20;;;;;;5161129;23;20036;-52
2022/10/02 08:54:45;;;;;;;;;;;21.80;67.10;;;;;;5170016;23;19922;-49
2022/10/02 08:57:13;;;;;;;;;;;21.70;67.00;;;;;;5161551;23;19904;-49
2022/10/02 08:59:53;;;;;;;;;;;21.70;66.90;;;;;;5169561;23;19968;-53
2022/10/02 09:02:32;;;;;;;;;;;21.70;67.10;;;;;;5170106;23;19907;-54
2022/10/02 09:05:07;;;;;;;;;;;21.70;67.30;;;;;;5161695;23;20258;-48
2022/10/02 09:07:38;;;;;;;;;;;21.70;67.20;;;;;;5167516;23;20415;-50
2022/10/02 09:10:12;;;;;;;;;;;21.70;67.20;;;;;;5169245;23;19968;-47
2022/10/02 09:12:36;;;;;;;;;;;21.70;67.30;;;;;;5169893;23;19957;-47
2022/10/02 09:15:05;;;;;;;;;;;21.80;67.40;;;;;;5166526;23;19908;-51
2022/10/02 09:17:31;;;;;;;;;;;21.80;67.50;;;;;;5167400;23;19914;-50
2022/10/02 09:20:13;;;;;;;;;;;21.80;65.40;;;;;;5159711;23;19909;-47
2022/10/02 09:22:54;;;;;;;;;;;21.70;63.10;;;;;;5106897;23;19949;-45
2022/10/02 09:25:34;;;;;;;;;;;21.60;61.40;;;;;;5159506;23;20336;-47
2022/10/02 09:27:58;;;;;;;;;;;21.50;60.90;;;;;;5162307;23;19930;-50
2022/10/02 09:30:25;;;;;;;;;;;21.40;60.80;;;;;;5166905;23;19919;-47
2022/10/02 09:32:56;;;;;;;;;;;21.30;60.30;;;;;;5160742;23;19942;-44
2022/10/02 09:35:21;;;;;;;;;;;21.20;60.40;;;;;;5168007;23;19930;-53
2022/10/02 09:37:43;;;;;;;;;;;21.10;60.20;;;;;;5160032;23;19907;-45
2022/10/02 09:40:25;;;;;;;;;;;21.10;60.30;;;;;;5166575;23;20268;-49
2022/10/02 09:42:56;;;;;;;;;;;21.00;60.10;;;;;;5158338;23;20295;-47
2022/10/02 09:45:36;;;;;;;;;;;20.90;60.20;;;;;;5166712;23;20445;-45
2022/10/02 09:48:16;;;;;;;;;;;20.90;60.20;;;;;;5166159;23;19990;-49
2022/10/02 09:50:48;;;;;;;;;;;20.80;60.10;;;;;;5165798;23;19911;-49
2022/10/02 09:53:28;;;;;;;;;;;20.70;60.20;;;;;;5160136;23;19907;-45
2022/10/02 09:56:09;;;;;;;;;;;20.70;60.20;;;;;;5169373;23;20320;-49
2022/10/02 09:58:36;;;;;;;;;;;20.60;60.20;;;;;;5168615;23;19983;-50
2022/10/02 10:00:58;;;;;;;;;;;20.60;60.30;;;;;;5168713;23;19908;-48
2022/10/02 10:03:29;;;;;;;;;;;20.50;60.40;;;;;;5169967;22;19904;-48
2022/10/02 10:06:01;;;;;;;;;;;20.50;60.50;;;;;;5169016;23;20360;-46
2022/10/02 10:08:49;;;;;;;;;;;20.40;60.50;;;;;;5167758;23;19912;-45
2022/10/02 10:11:29;;;;;;;;;;;20.40;60.70;;;;;;5169138;23;19935;-45
2022/10/02 10:13:51;;;;;;;;;;;20.30;60.60;;;;;;5168635;23;19908;-46
2022/10/02 10:16:22;;;;;;;;;;;20.30;60.70;;;;;;5159723;23;20071;-44
2022/10/02 10:19:02;;;;;;;;;;;20.30;60.50;;;;;;5169078;23;20320;-47
2022/10/02 10:21:42;;;;;;;;;;;20.20;60.80;;;;;;5159872;23;19903;-47
2022/10/02 10:24:20;;;;;;;;;;;20.20;61.00;;;;;;5168716;23;19986;-45
2022/10/02 10:27:08;;;;;;;;;;;20.20;60.90;;;;;;5158497;23;19903;-49
2022/10/02 10:29:39;;;;;;;;;;;20.10;61.00;;;;;;5133012;23;20002;-46
2022/10/02 10:32:20;;;;;;;;;;;20.10;61.20;;;;;;5169449;23;19904;-44
2022/10/02 10:34:44;;;;;;;;;;;20.10;61.30;;;;;;5167981;23;20324;-47
2022/10/02 10:39:59;;;;;;;;;;;19.90;61.20;;;;;;5168375;23;19907;-47
2022/10/02 10:42:22;;;;;;;;;;;19.90;61.30;;;;;;5169366;23;19903;-49
2022/10/02 10:44:58;;;;;;;;;;;19.90;61.40;;;;;;5160293;23;19910;-44
2022/10/02 10:47:25;;;;;;;;;;;19.90;61.60;;;;;;5160525;23;19912;-46
2022/10/02 10:50:05;;;;;;;;;;;19.80;61.20;;;;;;5167980;23;20328;-45
2022/10/02 10:52:27;;;;;;;;;;;19.80;61.50;;;;;;5167656;23;19903;-46
2022/10/02 10:54:49;;;;;;;;;;;19.80;61.30;;;;;;5169325;23;20264;-48
2022/10/02 10:57:16;;;;;;;;;;;19.70;61.50;;;;;;5168066;23;19911;-45
2022/10/02 10:59:41;;;;;;;;;;;19.70;61.50;;;;;;5168768;23;20255;-48
2022/10/02 11:02:21;;;;;;;;;;;19.70;61.60;;;;;;5169067;23;20252;-45
2022/10/02 11:05:02;;;;;;;;;;;19.70;61.60;;;;;;5160743;22;19990;-45
2022/10/02 11:07:27;;;;;;;;;;;19.60;61.50;;;;;;5168996;23;20391;-46
2022/10/02 11:09:55;;;;;;;;;;;19.60;61.70;;;;;;5168767;23;19937;-44
2022/10/02 11:12:38;;;;;;;;;;;19.60;61.80;;;;;;5168654;23;19972;-44
2022/10/02 11:14:59;;;;;;;;;;;19.50;61.70;;;;;;5161553;23;19911;-49
2022/10/02 11:17:34;;;;;;;;;;;19.50;61.60;;;;;;5168466;23;19903;-45
2022/10/02 11:19:55;;;;;;;;;;;19.50;61.80;;;;;;5139489;23;19912;-45
2022/10/02 11:22:36;;;;;;;;;;;19.40;61.70;;;;;;5168429;23;19934;-45
2022/10/02 11:25:13;;;;;;;;;;;19.40;61.90;;;;;;5161066;23;19942;-44
2022/10/02 11:27:47;;;;;;;;;;;19.40;61.90;;;;;;5169561;23;19907;-44
2022/10/02 11:30:22;;;;;;;;;;;19.40;62.00;;;;;;5169120;23;19922;-44
2022/10/02 11:32:44;;;;;;;;;;;19.40;62.00;;;;;;5171881;23;19904;-44
2022/10/02 11:35:12;;;;;;;;;;;19.30;62.10;;;;;;5161932;23;19903;-44
2022/10/02 11:37:37;;;;;;;;;;;19.30;62.20;;;;;;5172106;23;19910;-46
2022/10/02 11:40:08;;;;;;;;;;;19.30;62.10;;;;;;5141417;23;19914;-45
2022/10/02 11:42:36;;;;;;;;;;;19.20;61.90;;;;;;5171971;23;19911;-46
2022/10/02 11:44:58;;;;;;;;;;;19.20;62.20;;;;;;5167730;23;19904;-49
2022/10/02 11:47:20;;;;;;;;;;;19.20;61.80;;;;;;5167329;23;19907;-49
2022/10/02 11:50:00;;;;;;;;;;;19.40;61.40;;;;;;5167343;23;19918;-47
2022/10/02 11:52:22;;;;;;;;;;;19.50;61.30;;;;;;5158859;23;19943;-47
2022/10/02 11:54:57;;;;;;;;;;;19.80;61.30;;;;;;5168823;23;20343;-50
2022/10/02 11:57:28;;;;;;;;;;;20.00;61.10;;;;;;5159797;23;19910;-48
2022/10/02 12:00:02;;;;;;;;;;;20.10;61.70;;;;;;5167083;23;20014;-48
2022/10/02 12:02:24;;;;;;;;;;;20.00;62.10;;;;;;5158609;23;20243;-49
2022/10/02 12:04:51;;;;;;;;;;;20.00;62.60;;;;;;5168415;22;19949;-51
2022/10/02 12:07:24;;;;;;;;;;;20.00;62.70;;;;;;5159519;23;19984;-47
2022/10/02 12:09:48;;;;;;;;;;;19.90;63.00;;;;;;5168507;23;19919;-45
2022/10/02 12:12:21;;;;;;;;;;;19.90;63.80;;;;;;5168761;23;19911;-46
2022/10/02 12:15:01;;;;;;;;;;;19.90;63.50;;;;;;5168293;23;19907;-50
2022/10/02 12:17:32;;;;;;;;;;;19.80;64.30;;;;;;5166671;23;19907;-53
2022/10/02 12:28:27;;;;;;;;;;;19.90;66.00;;;;;;5167286;23;19997;-52
2022/10/02 12:31:00;;;;;;;;;;;19.90;65.20;;;;;;5167139;23;19918;-50
2022/10/02 12:33:31;;;;;;;;;;;19.90;66.20;;;;;;5158904;23;19908;-57
2022/10/02 12:36:11;;;;;;;;;;;19.90;65.60;;;;;;5159742;23;20020;-49
2022/10/02 12:39:05;;;;;;;;;;;19.80;65.30;;;;;;5168507;23;19920;-48
2022/10/02 12:41:36;;;;;;;;;;;19.80;65.00;;;;;;5105621;23;19953;-54
2022/10/02 12:44:10;;;;;;;;;;;19.80;65.20;;;;;;5170569;23;19961;-54
2022/10/02 12:46:50;;;;;;;;;;;19.80;65.40;;;;;;5139659;23;20094;-48
2022/10/02 12:49:15;;;;;;;;;;;19.80;65.60;;;;;;5161541;23;19915;-49
2022/10/02 12:51:46;;;;;;;;;;;19.80;65.60;;;;;;5168895;23;19914;-48
2022/10/02 12:54:25;;;;;;;;;;;19.70;65.60;;;;;;5169146;23;20018;-56
2022/10/02 12:57:07;;;;;;;;;;;19.70;65.60;;;;;;5169905;23;19903;-51
2022/10/02 12:59:37;;;;;;;;;;;19.70;66.00;;;;;;5170457;23;19982;-51
2022/10/02 13:02:09;;;;;;;;;;;19.70;66.70;;;;;;5167819;23;19982;-51
2022/10/02 13:04:49;;;;;;;;;;;19.70;66.80;;;;;;5168650;22;19914;-50
2022/10/02 13:07:12;;;;;;;;;;;19.80;66.80;;;;;;5167935;23;19935;-47
2022/10/02 13:09:49;;;;;;;;;;;19.80;66.90;;;;;;5160486;23;19998;-54
2022/10/02 13:12:20;;;;;;;;;;;19.80;67.20;;;;;;5170029;23;20352;-52
2022/10/02 13:15:00;;;;;;;;;;;19.90;67.20;;;;;;5168111;23;20283;-52
2022/10/02 13:17:45;;;;;;;;;;;19.90;67.00;;;;;;5160222;23;19907;-49
2022/10/02 13:20:15;;;;;;;;;;;19.90;67.00;;;;;;5161797;23;20334;-59
2022/10/02 13:22:57;;;;;;;;;;;19.90;66.90;;;;;;5170809;23;20336;-51
2022/10/02 13:25:27;;;;;;;;;;;19.90;66.70;;;;;;5160941;23;19904;-50
2022/10/02 13:27:58;;;;;;;;;;;19.90;66.60;;;;;;5140068;23;19987;-52
2022/10/02 13:30:21;;;;;;;;;;;19.90;66.50;;;;;;5162042;23;20264;-50
2022/10/02 13:33:00;;;;;;;;;;;19.90;66.70;;;;;;5159437;23;19904;-54
2022/10/02 13:35:31;;;;;;;;;;;19.90;66.60;;;;;;5167557;23;19910;-52
2022/10/02 13:37:56;;;;;;;;;;;19.90;66.70;;;;;;5138774;23;19942;-56
2022/10/02 13:40:21;;;;;;;;;;;19.80;66.50;;;;;;5168351;23;19903;-53
2022/10/02 13:43:13;;;;;;;;;;;19.80;66.60;;;;;;5159975;23;19935;-53
2022/10/02 13:45:46;;;;;;;;;;;19.90;66.60;;;;;;5169483;23;20381;-52
2022/10/02 13:48:11;;;;;;;;;;;19.90;67.30;;;;;;5169866;23;20386;-53
2022/10/02 13:50:47;;;;;;;;;;;19.90;66.90;;;;;;5167958;23;19908;-55
2022/10/02 13:53:16;;;;;;;;;;;19.90;67.30;;;;;;5169067;23;19918;-56
2022/10/02 13:55:42;;;;;;;;;;;19.90;67.00;;;;;;5168811;23;19907;-47
2022/10/02 13:58:07;;;;;;;;;;;19.90;66.90;;;;;;5169505;23;19908;-52
2022/10/02 14:00:39;;;;;;;;;;;19.90;66.70;;;;;;5160185;23;19907;-53
2022/10/02 14:03:03;;;;;;;;;;;19.90;66.60;;;;;;5161665;22;20299;-54
2022/10/02 14:05:34;;;;;;;;;;;19.90;66.60;;;;;;5169812;23;19903;-50
2022/10/02 14:08:04;;;;;;;;;;;19.90;66.40;;;;;;5159423;23;20272;-51
2022/10/02 14:10:29;;;;;;;;;;;19.90;66.40;;;;;;5137595;23;19919;-52
2022/10/02 14:12:54;;;;;;;;;;;19.90;65.90;;;;;;5169413;23;20380;-54
2022/10/02 14:15:25;;;;;;;;;;;19.80;63.20;;;;;;5169248;23;20340;-52
2022/10/02 14:18:06;;;;;;;;;;;19.80;62.20;;;;;;5168944;23;19903;-51
2022/10/02 14:20:37;;;;;;;;;;;19.70;61.60;;;;;;5168992;23;19907;-51
2022/10/02 14:23:05;;;;;;;;;;;19.60;61.20;;;;;;5169545;23;19915;-53
2022/10/02 14:25:27;;;;;;;;;;;19.50;61.60;;;;;;5168776;23;20312;-56
2022/10/02 14:27:52;;;;;;;;;;;19.40;61.30;;;;;;5169792;23;19910;-54
2022/10/02 14:30:17;;;;;;;;;;;19.40;61.30;;;;;;5160647;23;19912;-56
2022/10/02 14:32:41;;;;;;;;;;;19.30;61.50;;;;;;5161245;23;19934;-51
2022/10/02 14:35:09;;;;;;;;;;;19.20;61.20;;;;;;5167187;23;19907;-51
2022/10/02 14:37:42;;;;;;;;;;;19.20;62.50;;;;;;5167715;23;19927;-53
2022/10/02 14:40:12;;;;;;;;;;;19.20;62.70;;;;;;5167553;23;19907;-51
2022/10/02 14:42:34;;;;;;;;;;;19.20;63.00;;;;;;5167695;23;20395;-51
2022/10/02 14:45:17;;;;;;;;;;;19.20;63.30;;;;;;5158408;23;19953;-50